createdAt,value
2017-09-26T00:00:36.115Z,12.90
2017-09-26T00:03:03.805Z,12.10
2017-09-26T00:05:31.371Z,11.90
2017-09-26T00:07:58.932Z,12.00
2017-09-26T00:10:25.881Z,11.90
2017-09-26T00:12:52.712Z,11.90
2017-09-26T00:15:19.541Z,11.80
2017-09-26T00:17:47.122Z,11.80
2017-09-26T00:20:17.327Z,11.90
2017-09-26T00:22:44.270Z,11.80
2017-09-26T00:25:11.082Z,12.20
2017-09-26T00:27:38.663Z,11.90
2017-09-26T00:30:06.256Z,11.80
2017-09-26T00:32:33.822Z,11.80
2017-09-26T00:35:01.445Z,11.90
2017-09-26T00:37:28.302Z,11.80
2017-09-26T00:39:55.228Z,12.20
2017-09-26T00:42:22.798Z,12.70
2017-09-26T00:44:50.339Z,12.20
2017-09-26T00:47:17.175Z,12.20
2017-09-26T00:49:44.024Z,12.00
2017-09-26T00:52:10.891Z,11.70
2017-09-26T00:54:37.751Z,11.70
2017-09-26T00:57:04.661Z,11.60
2017-09-26T00:59:31.525Z,11.80
2017-09-26T01:01:58.358Z,11.70
2017-09-26T01:04:25.196Z,11.40
2017-09-26T01:06:53.958Z,11.30
2017-09-26T01:09:20.804Z,11.30
2017-09-26T01:11:47.661Z,11.20
2017-09-26T01:14:14.513Z,11.20
2017-09-26T01:16:41.415Z,11.20
2017-09-26T01:19:09.030Z,11.40
2017-09-26T01:21:35.987Z,11.40
2017-09-26T01:24:02.839Z,11.50
2017-09-26T01:26:29.658Z,11.60
2017-09-26T01:28:56.501Z,11.60
2017-09-26T01:31:23.347Z,11.80
2017-09-26T01:33:50.177Z,11.70
2017-09-26T01:36:17.688Z,11.60
2017-09-26T01:38:44.472Z,11.60
2017-09-26T01:41:23.432Z,11.60
2017-09-26T01:43:50.215Z,11.70
2017-09-26T01:46:17.007Z,11.90
2017-09-26T01:48:43.857Z,12.20
2017-09-26T01:51:10.700Z,12.20
2017-09-26T01:53:37.533Z,12.10
2017-09-26T01:56:04.352Z,12.10
2017-09-26T01:58:37.995Z,12.20
2017-09-26T02:01:04.806Z,12.40
2017-09-26T02:03:31.639Z,12.60
2017-09-26T02:05:59.177Z,12.80
2017-09-26T02:08:25.976Z,12.80
2017-09-26T02:10:53.546Z,12.10
2017-09-26T02:13:20.343Z,12.10
2017-09-26T02:15:47.129Z,12.00
2017-09-26T02:18:13.958Z,12.00
2017-09-26T02:20:40.773Z,12.00
2017-09-26T02:23:07.594Z,12.00
2017-09-26T02:25:34.409Z,12.20
2017-09-26T02:28:01.241Z,12.40
2017-09-26T02:30:28.086Z,12.50
2017-09-26T02:32:54.887Z,12.60
2017-09-26T02:35:21.748Z,12.60
2017-09-26T02:37:48.528Z,12.80
2017-09-26T02:40:16.068Z,12.80
2017-09-26T02:42:42.858Z,12.80
2017-09-26T02:45:10.410Z,12.40
2017-09-26T02:47:37.214Z,12.40
2017-09-26T02:50:04.001Z,12.20
2017-09-26T02:52:30.821Z,12.10
2017-09-26T02:54:58.410Z,12.30
2017-09-26T02:57:25.233Z,12.30
2017-09-26T02:59:52.089Z,12.60
2017-09-26T03:02:18.893Z,12.50
2017-09-26T03:04:45.722Z,12.20
2017-09-26T03:07:12.517Z,12.10
2017-09-26T03:09:39.322Z,12.10
2017-09-26T03:12:06.240Z,12.10
2017-09-26T03:14:33.035Z,12.20
2017-09-26T03:16:59.848Z,12.30
2017-09-26T03:19:27.428Z,12.10
2017-09-26T03:21:54.232Z,12.10
2017-09-26T03:24:21.045Z,12.00
2017-09-26T03:26:48.586Z,12.10
2017-09-26T03:29:15.384Z,12.10
2017-09-26T03:31:42.998Z,12.30
2017-09-26T03:34:09.827Z,12.30
2017-09-26T03:36:36.674Z,12.40
2017-09-26T03:39:04.281Z,12.10
2017-09-26T03:41:31.080Z,12.10
2017-09-26T03:43:57.869Z,12.20
2017-09-26T03:46:25.465Z,12.50
2017-09-26T03:48:52.264Z,12.50
2017-09-26T03:51:19.075Z,12.60
2017-09-26T03:53:46.679Z,12.50
2017-09-26T03:56:13.498Z,12.50
2017-09-26T03:58:40.374Z,12.40
2017-09-26T04:01:07.959Z,12.40
2017-09-26T04:03:35.558Z,12.30
2017-09-26T04:06:02.429Z,12.20
2017-09-26T04:08:29.362Z,12.20
2017-09-26T04:10:56.929Z,12.30
2017-09-26T04:13:24.520Z,12.30
2017-09-26T04:15:52.073Z,12.40
2017-09-26T04:18:18.978Z,12.40
2017-09-26T04:20:45.800Z,12.50
2017-09-26T04:23:12.614Z,12.60
2017-09-26T04:25:39.433Z,12.50
2017-09-26T04:28:07.075Z,12.60
2017-09-26T04:30:33.919Z,12.60
2017-09-26T04:33:00.722Z,12.40
2017-09-26T04:35:27.550Z,12.30
2017-09-26T04:37:54.337Z,12.40
2017-09-26T04:40:21.177Z,12.60
2017-09-26T04:42:48.006Z,12.60
2017-09-26T04:45:14.846Z,12.40
2017-09-26T04:47:42.382Z,12.20
2017-09-26T04:50:09.248Z,12.20
2017-09-26T04:52:36.070Z,12.30
2017-09-26T04:55:02.864Z,12.20
2017-09-26T04:57:29.700Z,12.10
2017-09-26T04:59:56.494Z,12.20
2017-09-26T05:02:23.343Z,12.20
2017-09-26T05:04:50.214Z,12.20
2017-09-26T05:07:17.028Z,12.30
2017-09-26T05:09:44.583Z,12.20
2017-09-26T05:12:12.167Z,12.20
2017-09-26T05:14:38.997Z,12.20
2017-09-26T05:17:05.801Z,12.30
2017-09-26T05:19:32.610Z,12.60
2017-09-26T05:21:59.426Z,12.70
2017-09-26T05:24:26.237Z,13.00
2017-09-26T05:26:53.070Z,12.90
2017-09-26T05:29:19.856Z,13.00
2017-09-26T05:31:46.667Z,13.00
2017-09-26T05:34:14.202Z,12.60
2017-09-26T05:36:41.024Z,12.60
2017-09-26T05:39:07.850Z,12.70
2017-09-26T05:41:34.648Z,12.80
2017-09-26T05:44:01.492Z,12.50
2017-09-26T05:46:28.293Z,12.40
2017-09-26T05:48:55.127Z,12.40
2017-09-26T05:51:21.916Z,12.20
2017-09-26T05:53:48.703Z,12.30
2017-09-26T05:56:16.205Z,12.80
2017-09-26T05:58:42.976Z,12.80
2017-09-26T06:01:09.768Z,12.50
2017-09-26T06:03:36.582Z,12.70
2017-09-26T06:06:03.418Z,12.90
2017-09-26T06:08:30.962Z,12.90
2017-09-26T06:10:57.759Z,12.90
2017-09-26T06:13:25.318Z,12.80
2017-09-26T06:15:52.843Z,12.70
2017-09-26T06:18:19.673Z,12.70
2017-09-26T06:20:46.468Z,12.90
2017-09-26T06:23:13.306Z,12.80
2017-09-26T06:25:40.130Z,13.00
2017-09-26T06:28:06.938Z,13.10
2017-09-26T06:30:33.757Z,13.20
2017-09-26T06:33:01.279Z,13.10
2017-09-26T06:35:28.102Z,13.10
2017-09-26T06:37:55.678Z,13.20
2017-09-26T06:40:23.204Z,13.20
2017-09-26T06:42:50.037Z,13.20
2017-09-26T06:45:16.898Z,13.10
2017-09-26T06:47:43.688Z,12.90
2017-09-26T06:50:10.517Z,13.00
2017-09-26T06:52:37.310Z,13.00
2017-09-26T06:55:04.152Z,12.90
2017-09-26T06:57:30.955Z,13.00
2017-09-26T06:59:57.766Z,13.20
2017-09-26T07:02:24.562Z,13.10
2017-09-26T07:04:51.382Z,13.10
2017-09-26T07:07:18.205Z,13.10
2017-09-26T07:09:44.995Z,13.40
2017-09-26T07:12:11.794Z,13.50
2017-09-26T07:14:38.569Z,13.50
2017-09-26T07:17:05.361Z,13.50
2017-09-26T07:19:32.896Z,13.70
2017-09-26T07:21:59.709Z,13.60
2017-09-26T07:24:26.537Z,13.80
2017-09-26T07:26:53.381Z,13.80
2017-09-26T07:29:20.217Z,13.80
2017-09-26T07:31:47.102Z,13.80
2017-09-26T07:34:13.918Z,13.60
2017-09-26T07:36:40.759Z,13.50
2017-09-26T07:39:08.288Z,13.50
2017-09-26T07:41:35.084Z,13.50
2017-09-26T07:44:01.868Z,13.40
2017-09-26T07:46:28.670Z,13.40
2017-09-26T07:48:55.474Z,13.50
2017-09-26T07:51:23.079Z,13.60
2017-09-26T07:53:49.857Z,13.70
2017-09-26T07:56:16.656Z,13.70
2017-09-26T07:58:43.511Z,13.80
2017-09-26T08:01:11.082Z,14.00
2017-09-26T08:03:38.556Z,13.90
2017-09-26T08:06:06.131Z,13.90
2017-09-26T08:08:33.786Z,14.00
2017-09-26T08:11:00.581Z,14.00
2017-09-26T08:13:27.391Z,14.20
2017-09-26T08:15:54.190Z,14.20
2017-09-26T08:18:20.972Z,14.00
2017-09-26T08:20:47.776Z,14.20
2017-09-26T08:23:14.591Z,14.10
2017-09-26T08:25:41.390Z,14.10
2017-09-26T08:28:08.196Z,14.10
2017-09-26T08:30:35.059Z,14.20
2017-09-26T08:33:01.857Z,14.20
2017-09-26T08:35:28.682Z,14.20
2017-09-26T08:37:55.518Z,14.30
2017-09-26T08:40:22.381Z,14.40
2017-09-26T08:42:49.181Z,14.50
2017-09-26T08:45:17.726Z,14.60
2017-09-26T08:47:44.673Z,14.60
2017-09-26T08:50:11.511Z,14.80
2017-09-26T08:52:38.301Z,14.70
2017-09-26T08:55:05.116Z,14.60
2017-09-26T08:57:31.966Z,14.60
2017-09-26T08:59:58.856Z,14.70
2017-09-26T09:02:26.408Z,14.80
2017-09-26T09:04:53.214Z,14.80
2017-09-26T09:07:20.031Z,14.90
2017-09-26T09:09:46.877Z,15.10
2017-09-26T09:12:13.742Z,15.10
2017-09-26T09:14:40.576Z,15.20
2017-09-26T09:17:07.390Z,15.30
2017-09-26T09:19:34.195Z,15.20
2017-09-26T09:22:00.997Z,15.20
2017-09-26T09:24:27.807Z,15.30
2017-09-26T09:26:54.595Z,15.50
2017-09-26T09:29:21.510Z,15.60
2017-09-26T09:31:49.073Z,15.90
2017-09-26T09:34:16.573Z,15.80
2017-09-26T09:36:43.407Z,15.90
2017-09-26T09:39:10.192Z,16.00
2017-09-26T09:41:37.020Z,16.00
2017-09-26T09:44:03.831Z,16.00
2017-09-26T09:46:30.615Z,16.10
2017-09-26T09:48:57.395Z,16.20
2017-09-26T09:51:24.229Z,16.30
2017-09-26T09:53:51.031Z,16.30
2017-09-26T09:56:17.855Z,16.40
2017-09-26T09:58:44.641Z,16.50
2017-09-26T10:01:11.438Z,16.60
2017-09-26T10:03:38.256Z,16.70
2017-09-26T10:06:05.078Z,16.90
2017-09-26T10:08:31.873Z,17.10
2017-09-26T10:10:58.691Z,17.30
2017-09-26T10:13:25.486Z,17.30
2017-09-26T10:15:52.297Z,17.40
2017-09-26T10:18:19.113Z,17.60
2017-09-26T10:20:45.978Z,17.80
2017-09-26T10:23:12.785Z,17.90
2017-09-26T10:25:39.600Z,17.90
2017-09-26T10:28:06.413Z,17.90
2017-09-26T10:30:33.236Z,17.90
2017-09-26T10:33:00.753Z,17.70
2017-09-26T10:35:27.544Z,17.70
2017-09-26T10:37:54.334Z,17.90
2017-09-26T10:40:21.160Z,17.90
2017-09-26T10:42:47.945Z,18.00
2017-09-26T10:45:14.757Z,18.10
2017-09-26T10:47:41.528Z,18.10
2017-09-26T10:50:09.061Z,18.20
2017-09-26T10:52:36.611Z,18.20
2017-09-26T10:55:03.421Z,18.20
2017-09-26T10:57:30.227Z,18.20
2017-09-26T10:59:57.034Z,18.40
2017-09-26T11:02:23.836Z,18.70
2017-09-26T11:04:50.637Z,18.80
2017-09-26T11:07:18.167Z,19.20
2017-09-26T11:09:45.018Z,19.20
2017-09-26T11:12:11.792Z,18.90
2017-09-26T11:14:38.577Z,19.10
2017-09-26T11:17:05.369Z,19.40
2017-09-26T11:19:32.209Z,19.70
2017-09-26T11:21:59.912Z,19.90
2017-09-26T11:24:30.051Z,20.10
2017-09-26T11:26:56.996Z,20.10
2017-09-26T11:29:24.565Z,20.40
2017-09-26T11:31:51.726Z,20.40
2017-09-26T11:34:18.542Z,20.60
2017-09-26T11:36:45.967Z,20.30
2017-09-26T11:39:13.253Z,19.70
2017-09-26T11:41:40.096Z,19.80
2017-09-26T11:44:07.849Z,19.80
2017-09-26T11:46:35.070Z,19.80
2017-09-26T11:49:02.693Z,19.40
2017-09-26T11:51:29.486Z,19.50
2017-09-26T11:53:56.306Z,19.30
2017-09-26T11:56:23.111Z,19.00
2017-09-26T11:58:49.944Z,19.30
2017-09-26T12:01:17.637Z,19.50
2017-09-26T12:03:44.489Z,19.50
2017-09-26T12:06:11.317Z,19.70
2017-09-26T12:08:38.196Z,19.70
2017-09-26T12:11:05.001Z,19.80
2017-09-26T12:13:38.671Z,19.90
2017-09-26T12:16:05.567Z,19.90
2017-09-26T12:18:32.395Z,20.00
2017-09-26T12:20:59.223Z,20.10
2017-09-26T12:23:26.040Z,20.30
2017-09-26T12:25:52.855Z,20.30
2017-09-26T12:28:19.664Z,20.30
2017-09-26T12:30:46.472Z,20.10
2017-09-26T12:33:13.283Z,20.20
2017-09-26T12:35:40.159Z,20.10
2017-09-26T12:38:06.974Z,19.80
2017-09-26T12:40:33.816Z,19.80
2017-09-26T12:43:00.645Z,19.60
2017-09-26T12:45:27.481Z,19.50
2017-09-26T12:47:54.330Z,19.50
2017-09-26T12:50:21.213Z,19.60
2017-09-26T12:52:48.354Z,19.50
2017-09-26T12:55:15.307Z,19.50
2017-09-26T12:57:42.922Z,19.40
2017-09-26T13:00:09.764Z,19.40
2017-09-26T13:02:36.631Z,19.30
2017-09-26T13:05:03.634Z,19.30
2017-09-26T13:07:30.522Z,19.30
2017-09-26T13:10:00.389Z,19.40
2017-09-26T13:12:27.593Z,19.50
2017-09-26T13:14:55.176Z,19.30
2017-09-26T13:17:22.786Z,19.10
2017-09-26T13:19:49.708Z,19.10
2017-09-26T13:22:16.521Z,19.10
2017-09-26T13:24:43.353Z,18.90
2017-09-26T13:27:10.171Z,18.90
2017-09-26T13:29:37.002Z,18.90
2017-09-26T13:32:04.534Z,18.80
2017-09-26T13:34:31.431Z,18.90
2017-09-26T13:36:58.224Z,18.90
2017-09-26T13:39:25.057Z,18.80
2017-09-26T13:41:51.891Z,18.80
2017-09-26T13:44:19.435Z,18.60
2017-09-26T13:46:46.239Z,18.60
2017-09-26T13:49:13.032Z,18.90
2017-09-26T13:51:40.486Z,18.60
2017-09-26T13:54:07.275Z,18.10
2017-09-26T13:56:35.439Z,18.30
2017-09-26T13:59:03.037Z,17.30
2017-09-26T14:01:29.879Z,17.20
2017-09-26T14:03:56.676Z,17.00
2017-09-26T14:06:23.511Z,16.60
2017-09-26T14:08:51.036Z,16.70
2017-09-26T14:11:18.591Z,16.70
2017-09-26T14:13:45.968Z,16.70
2017-09-26T14:16:13.473Z,16.30
2017-09-26T14:18:41.104Z,16.30
2017-09-26T14:21:07.934Z,16.30
2017-09-26T14:23:35.367Z,16.10
2017-09-26T14:26:02.160Z,15.80
2017-09-26T14:28:29.044Z,15.70
2017-09-26T14:30:56.044Z,16.00
2017-09-26T14:33:22.918Z,15.70
2017-09-26T14:35:49.915Z,15.30
2017-09-26T14:38:16.788Z,15.10
2017-09-26T14:40:43.612Z,14.60
2017-09-26T14:43:11.188Z,14.30
2017-09-26T14:45:37.980Z,14.30
2017-09-26T14:48:05.221Z,14.30
2017-09-26T14:50:32.775Z,14.70
2017-09-26T14:52:59.576Z,14.60
2017-09-26T14:55:27.095Z,15.30
2017-09-26T14:57:53.933Z,15.30
2017-09-26T15:00:22.514Z,15.50
2017-09-26T15:02:49.402Z,15.60
2017-09-26T15:05:16.242Z,15.70
2017-09-26T15:07:43.085Z,15.40
2017-09-26T15:10:10.626Z,15.30
2017-09-26T15:12:37.713Z,15.30
2017-09-26T15:15:04.526Z,15.10
2017-09-26T15:17:31.372Z,14.80
2017-09-26T15:19:59.007Z,14.60
2017-09-26T15:22:25.820Z,14.60
2017-09-26T15:24:52.628Z,15.00
2017-09-26T15:27:19.916Z,15.00
2017-09-26T15:29:46.705Z,15.20
2017-09-26T15:32:14.150Z,15.30
2017-09-26T15:34:42.383Z,15.40
2017-09-26T15:37:09.225Z,15.40
2017-09-26T15:39:36.094Z,15.20
2017-09-26T15:42:02.906Z,14.60
2017-09-26T15:44:30.159Z,14.70
2017-09-26T15:46:57.314Z,14.70
2017-09-26T15:49:24.183Z,14.40
2017-09-26T15:51:51.392Z,14.40
2017-09-26T15:54:18.988Z,15.20
2017-09-26T15:56:46.551Z,15.10
2017-09-26T15:59:13.352Z,15.10
2017-09-26T16:01:40.136Z,15.20
2017-09-26T16:04:07.389Z,15.20
2017-09-26T16:06:34.216Z,15.30
2017-09-26T16:09:01.834Z,14.50
2017-09-26T16:11:28.637Z,14.50
2017-09-26T16:13:55.408Z,14.40
2017-09-26T16:16:22.923Z,14.40
2017-09-26T16:18:50.470Z,14.80
2017-09-26T16:21:17.310Z,14.80
2017-09-26T16:23:44.130Z,14.60
2017-09-26T16:26:10.929Z,14.30
2017-09-26T16:28:37.729Z,14.20
2017-09-26T16:31:04.533Z,13.90
2017-09-26T16:33:31.347Z,14.00
2017-09-26T16:35:58.148Z,13.90
2017-09-26T16:38:24.985Z,13.90
2017-09-26T16:40:51.789Z,14.00
2017-09-26T16:43:18.584Z,14.10
2017-09-26T16:45:45.403Z,14.50
2017-09-26T16:48:12.224Z,14.70
2017-09-26T16:50:39.078Z,14.90
2017-09-26T16:53:05.869Z,15.00
2017-09-26T16:55:32.743Z,15.10
2017-09-26T16:57:59.507Z,15.10
2017-09-26T17:00:26.323Z,14.60
2017-09-26T17:02:53.161Z,14.50
2017-09-26T17:05:20.715Z,14.20
2017-09-26T17:07:48.393Z,14.30
2017-09-26T17:10:15.220Z,14.30
2017-09-26T17:12:42.057Z,14.20
2017-09-26T17:15:08.894Z,14.00
2017-09-26T17:17:36.459Z,13.80
2017-09-26T17:20:03.338Z,13.70
2017-09-26T17:22:30.916Z,13.70
2017-09-26T17:24:59.023Z,14.00
2017-09-26T17:27:26.045Z,13.90
2017-09-26T17:29:54.025Z,14.00
2017-09-26T17:32:21.035Z,14.50
2017-09-26T17:34:47.876Z,14.60
2017-09-26T17:37:15.484Z,14.40
2017-09-26T17:39:42.363Z,14.40
2017-09-26T17:42:09.181Z,14.60
2017-09-26T17:44:37.051Z,14.10
2017-09-26T17:47:03.901Z,14.00
2017-09-26T17:49:30.739Z,14.00
2017-09-26T17:51:57.561Z,13.90
2017-09-26T17:54:25.259Z,13.80
2017-09-26T17:56:52.139Z,13.70
2017-09-26T17:59:18.980Z,13.80
2017-09-26T18:01:45.883Z,13.80
2017-09-26T18:04:12.830Z,14.20
2017-09-26T18:06:39.654Z,14.40
2017-09-26T18:09:06.502Z,14.40
2017-09-26T18:11:34.069Z,14.40
2017-09-26T18:14:01.646Z,14.50
2017-09-26T18:16:28.534Z,14.40
2017-09-26T18:18:55.406Z,14.50
2017-09-26T18:21:22.470Z,14.30
2017-09-26T18:23:49.335Z,14.20
2017-09-26T18:26:16.179Z,14.30
2017-09-26T18:28:43.215Z,14.40
2017-09-26T18:31:10.818Z,14.40
2017-09-26T18:33:38.994Z,14.50
2017-09-26T18:36:05.839Z,14.50
2017-09-26T18:38:32.715Z,14.30
2017-09-26T18:41:00.268Z,13.70
2017-09-26T18:43:27.154Z,13.70
2017-09-26T18:45:54.083Z,13.70
2017-09-26T18:48:20.910Z,13.70
2017-09-26T18:50:47.771Z,13.60
2017-09-26T18:53:15.101Z,13.70
2017-09-26T18:55:42.160Z,14.00
2017-09-26T18:58:09.791Z,13.80
2017-09-26T19:00:36.661Z,13.80
2017-09-26T19:03:03.509Z,14.00
2017-09-26T19:05:30.416Z,14.00
2017-09-26T19:07:57.348Z,13.90
2017-09-26T19:10:25.234Z,13.90
2017-09-26T19:12:52.155Z,13.70
2017-09-26T19:15:19.081Z,13.70
2017-09-26T19:17:46.628Z,13.70
2017-09-26T19:20:13.917Z,13.60
2017-09-26T19:22:40.844Z,13.70
2017-09-26T19:25:07.723Z,14.10
2017-09-26T19:27:34.660Z,14.30
2017-09-26T19:30:02.390Z,13.60
2017-09-26T19:32:29.993Z,13.60
2017-09-26T19:34:57.683Z,13.60
2017-09-26T19:37:24.518Z,13.50
2017-09-26T19:39:51.410Z,13.40
2017-09-26T19:42:18.750Z,13.20
2017-09-26T19:44:45.813Z,13.20
2017-09-26T19:47:13.291Z,13.60
2017-09-26T19:49:40.245Z,13.70
2017-09-26T19:52:08.084Z,13.90
2017-09-26T19:54:35.034Z,14.00
2017-09-26T19:57:02.600Z,14.00
2017-09-26T19:59:29.446Z,14.00
2017-09-26T20:01:56.337Z,13.80
2017-09-26T20:04:23.183Z,13.60
2017-09-26T20:06:50.015Z,13.80
2017-09-26T20:09:16.887Z,13.70
2017-09-26T20:11:43.712Z,13.50
2017-09-26T20:14:10.645Z,13.10
2017-09-26T20:16:38.227Z,12.60
2017-09-26T20:19:05.033Z,12.60
2017-09-26T20:21:31.839Z,12.60
2017-09-26T20:23:58.664Z,12.60
2017-09-26T20:26:26.219Z,12.70
2017-09-26T20:28:53.028Z,12.60
2017-09-26T20:31:19.865Z,12.80
2017-09-26T20:33:46.730Z,12.80
2017-09-26T20:36:13.580Z,12.50
2017-09-26T20:38:40.392Z,12.40
2017-09-26T20:41:07.220Z,12.40
2017-09-26T20:43:35.622Z,12.30
2017-09-26T20:46:02.562Z,12.30
2017-09-26T20:48:29.479Z,12.20
2017-09-26T20:50:56.334Z,12.30
2017-09-26T20:53:23.164Z,12.50
2017-09-26T20:55:50.019Z,12.50
2017-09-26T20:58:16.903Z,12.60
2017-09-26T21:00:44.249Z,12.80
2017-09-26T21:03:11.490Z,12.70
2017-09-26T21:05:38.391Z,12.50
2017-09-26T21:08:05.252Z,12.50
2017-09-26T21:10:32.095Z,12.40
2017-09-26T21:12:59.712Z,12.40
2017-09-26T21:15:27.579Z,12.20
2017-09-26T21:17:54.482Z,12.20
2017-09-26T21:20:22.290Z,12.80
2017-09-26T21:22:49.326Z,12.70
2017-09-26T21:25:16.674Z,12.90
2017-09-26T21:27:44.299Z,13.00
2017-09-26T21:30:11.450Z,12.90
2017-09-26T21:32:39.026Z,13.00
2017-09-26T21:35:06.610Z,12.30
2017-09-26T21:37:34.231Z,12.30
2017-09-26T21:40:01.068Z,12.30
2017-09-26T21:42:27.901Z,12.20
2017-09-26T21:44:54.741Z,12.20
2017-09-26T21:47:21.598Z,12.10
2017-09-26T21:49:48.602Z,12.20
2017-09-26T21:52:16.353Z,12.00
2017-09-26T21:54:43.202Z,11.90
2017-09-26T21:57:10.099Z,11.90
2017-09-26T21:59:37.634Z,11.90
2017-09-26T22:02:04.516Z,11.90
2017-09-26T22:04:31.479Z,12.30
2017-09-26T22:06:58.343Z,12.40
2017-09-26T22:09:25.478Z,12.60
2017-09-26T22:11:52.350Z,12.50
2017-09-26T22:14:19.314Z,12.00
2017-09-26T22:16:46.349Z,11.90
2017-09-26T22:19:13.325Z,11.80
2017-09-26T22:21:40.258Z,11.80
2017-09-26T22:24:07.908Z,12.30
2017-09-26T22:26:34.742Z,12.30
2017-09-26T22:29:01.517Z,12.40
2017-09-26T22:31:28.321Z,12.40
2017-09-26T22:33:55.138Z,12.40
2017-09-26T22:36:22.093Z,12.30
2017-09-26T22:38:48.875Z,12.10
2017-09-26T22:41:15.777Z,12.20
2017-09-26T22:43:42.638Z,12.10
2017-09-26T22:46:09.541Z,12.20
2017-09-26T22:48:36.472Z,12.00
2017-09-26T22:51:03.414Z,11.90
2017-09-26T22:53:31.026Z,11.90
2017-09-26T22:55:58.793Z,11.90
2017-09-26T22:58:25.729Z,11.80
2017-09-26T23:00:52.656Z,11.80
2017-09-26T23:03:19.670Z,11.80
2017-09-26T23:05:47.300Z,11.80
2017-09-26T23:08:14.146Z,11.70
2017-09-26T23:10:41.008Z,12.00
2017-09-26T23:13:07.811Z,12.20
2017-09-26T23:15:34.600Z,12.30
2017-09-26T23:18:01.407Z,12.30
2017-09-26T23:20:29.608Z,12.40
2017-09-26T23:22:56.468Z,12.30
2017-09-26T23:25:23.306Z,12.40
2017-09-26T23:27:50.222Z,12.40
2017-09-26T23:30:17.834Z,12.40
2017-09-26T23:32:45.453Z,12.40
2017-09-26T23:35:13.062Z,12.10
2017-09-26T23:37:40.627Z,12.20
2017-09-26T23:40:07.431Z,12.20
2017-09-26T23:42:34.253Z,12.10
2017-09-26T23:45:01.973Z,11.90
2017-09-26T23:47:28.796Z,11.70
2017-09-26T23:49:56.350Z,11.90
2017-09-26T23:52:23.216Z,11.90
2017-09-26T23:54:50.407Z,12.10
2017-09-26T23:57:17.959Z,12.00
2017-09-26T23:59:44.839Z,12.00
